Time;durP1;ratioP1;P1;durP2;ratioP2;P2;SDS_P1;SDS_P2;PMS_P1;PMS_P2;Temp;Humidity;BMP_temperature;BMP_pressure;BME280_temperature;BME280_humidity;BME280_pressure;Samples;Min_cycle;Max_cycle;Signal;HPM_P1;HPM_P2
2022/08/25 00:00:41;;;;;;;10.37;6.77;;;24.20;61.20;;;;;;4970748;28;20055;-76
2022/08/25 00:03:08;;;;;;;7.57;6.72;;;24.20;61.20;;;;;;4952825;28;20259;-76
2022/08/25 00:05:35;;;;;;;7.47;6.70;;;24.10;61.30;;;;;;4970994;28;20528;-76
2022/08/25 00:08:04;;;;;;;8.32;6.53;;;24.10;61.30;;;;;;4971323;28;20066;-76
2022/08/25 00:10:33;;;;;;;9.45;6.80;;;24.00;61.20;;;;;;4973648;28;20062;-76
2022/08/25 00:13:02;;;;;;;9.93;7.10;;;24.00;61.30;;;;;;4974246;28;20616;-76
2022/08/25 00:15:31;;;;;;;9.18;6.60;;;24.00;61.30;;;;;;4973941;28;20791;-76
2022/08/25 00:17:58;;;;;;;8.93;6.28;;;23.90;61.40;;;;;;4972490;28;20110;-76
2022/08/25 00:20:26;;;;;;;8.25;6.50;;;23.90;61.30;;;;;;4972347;28;20057;-76
2022/08/25 00:22:54;;;;;;;7.95;6.68;;;23.90;61.30;;;;;;4973718;28;20146;-76
2022/08/25 00:25:23;;;;;;;11.03;7.03;;;23.80;61.40;;;;;;4972400;28;20065;-76
2022/08/25 00:27:50;;;;;;;8.60;6.85;;;23.80;61.50;;;;;;4956173;28;20244;-76
2022/08/25 00:30:19;;;;;;;7.78;6.65;;;23.70;61.50;;;;;;4971327;28;20530;-76
2022/08/25 00:32:47;;;;;;;9.25;6.95;;;23.60;61.50;;;;;;4956118;28;20051;-76
2022/08/25 00:35:15;;;;;;;10.63;7.20;;;23.60;61.60;;;;;;4956661;28;20548;-76
2022/08/25 00:37:42;;;;;;;9.17;7.20;;;23.60;61.60;;;;;;4956033;28;20047;-76
2022/08/25 00:40:10;;;;;;;11.60;6.88;;;23.60;61.60;;;;;;4955955;28;20810;-76
2022/08/25 00:42:37;;;;;;;8.00;6.22;;;23.50;61.60;;;;;;4955959;28;20505;-76
2022/08/25 00:45:07;;;;;;;8.60;6.72;;;23.50;61.50;;;;;;4955840;28;20047;-76
2022/08/25 00:47:35;;;;;;;9.23;7.30;;;23.40;61.60;;;;;;4972377;28;20051;-76
2022/08/25 00:50:07;;;;;;;10.33;6.30;;;23.40;61.70;;;;;;4956152;28;20051;-76
2022/08/25 00:52:38;;;;;;;8.38;6.70;;;23.30;61.80;;;;;;4955979;28;20255;-76
2022/08/25 00:55:10;;;;;;;8.35;7.30;;;23.30;61.80;;;;;;4955664;28;20434;-76
2022/08/25 00:57:42;;;;;;;10.15;6.82;;;23.20;61.70;;;;;;4973733;28;20134;-76
2022/08/25 01:00:15;;;;;;;8.38;6.07;;;23.20;61.80;;;;;;4955746;28;20143;-76
2022/08/25 01:02:43;;;;;;;8.57;6.20;;;23.20;61.70;;;;;;4955698;28;20126;-77
2022/08/25 01:05:11;;;;;;;8.40;6.40;;;23.10;61.70;;;;;;4971383;28;20777;-77
2022/08/25 01:07:39;;;;;;;8.43;6.07;;;23.10;61.70;;;;;;4973177;28;20162;-76
2022/08/25 01:10:07;;;;;;;8.95;6.57;;;23.10;61.70;;;;;;4972854;28;20051;-76
2022/08/25 01:12:34;;;;;;;7.13;5.80;;;23.00;61.70;;;;;;4956276;28;20134;-76
2022/08/25 01:15:02;;;;;;;9.37;5.93;;;23.00;61.70;;;;;;4972989;28;20067;-77
2022/08/25 01:17:35;;;;;;;7.60;5.72;;;22.90;61.70;;;;;;4973379;28;20263;-76
2022/08/25 01:20:04;;;;;;;8.32;5.82;;;22.90;61.70;;;;;;4954953;28;20062;-76
2022/08/25 01:22:32;;;;;;;7.15;5.30;;;22.90;61.80;;;;;;4955558;28;20138;-76
2022/08/25 01:25:03;;;;;;;8.55;6.03;;;22.80;61.70;;;;;;4973262;28;20138;-76
2022/08/25 01:27:30;;;;;;;8.63;5.50;;;22.80;61.70;;;;;;4973005;28;20569;-76
2022/08/25 01:29:57;;;;;;;8.98;5.65;;;22.80;61.70;;;;;;4972654;28;20263;-76
2022/08/25 01:32:24;;;;;;;9.35;5.80;;;22.70;61.60;;;;;;4971641;28;20055;-76
2022/08/25 01:34:51;;;;;;;7.20;5.40;;;22.70;61.60;;;;;;4955184;28;20536;-76
2022/08/25 01:37:19;;;;;;;7.00;5.38;;;22.60;61.50;;;;;;4955396;28;20073;-76
2022/08/25 01:39:47;;;;;;;7.27;5.40;;;22.60;61.50;;;;;;4971443;28;20482;-76
2022/08/25 01:42:33;;;;;;;6.85;5.28;;;22.50;61.40;;;;;;4972702;28;20267;-76
2022/08/25 01:45:00;;;;;;;8.45;5.05;;;22.50;61.20;;;;;;4955252;28;20505;-76
2022/08/25 01:47:27;;;;;;;7.20;5.35;;;22.50;61.30;;;;;;4954739;28;20145;-76
2022/08/25 01:49:54;;;;;;;8.35;5.28;;;22.50;61.30;;;;;;4955103;28;20051;-76
2022/08/25 01:52:27;;;;;;;9.47;5.20;;;22.40;61.20;;;;;;4954998;28;20044;-76
2022/08/25 01:54:56;;;;;;;8.60;5.00;;;22.30;61.30;;;;;;4954782;28;20287;-76
2022/08/25 01:57:23;;;;;;;7.15;5.10;;;22.30;61.40;;;;;;4955077;28;20130;-76
2022/08/25 01:59:50;;;;;;;6.35;5.22;;;22.30;61.40;;;;;;4970595;28;20051;-76
2022/08/25 02:02:17;;;;;;;5.53;4.45;;;22.20;61.30;;;;;;4955076;28;20111;-76
2022/08/25 02:04:44;;;;;;;6.90;4.60;;;22.20;61.20;;;;;;4970713;28;20534;-76
2022/08/25 02:07:11;;;;;;;7.13;4.80;;;22.20;61.20;;;;;;4954844;28;20268;-76
2022/08/25 02:09:38;;;;;;;6.82;5.00;;;22.10;61.10;;;;;;4954589;28;20505;-76
2022/08/25 02:12:08;;;;;;;7.88;4.70;;;22.10;61.00;;;;;;4972153;28;20562;-76
2022/08/25 02:14:35;;;;;;;7.43;4.72;;;22.00;61.00;;;;;;4955129;28;20055;-76
2022/08/25 02:17:03;;;;;;;7.60;4.87;;;22.00;61.10;;;;;;4954546;28;20055;-76
2022/08/25 02:19:31;;;;;;;5.82;4.45;;;22.00;61.20;;;;;;4972220;28;20260;-76
2022/08/25 02:21:58;;;;;;;8.82;4.55;;;22.00;61.20;;;;;;4972337;28;20134;-76
2022/08/25 02:24:25;;;;;;;7.80;4.50;;;21.90;61.00;;;;;;4955080;28;20539;-76
2022/08/25 02:26:52;;;;;;;7.80;4.57;;;21.90;60.80;;;;;;4972057;28;20134;-76
2022/08/25 02:29:20;;;;;;;8.33;4.70;;;21.90;60.90;;;;;;4970574;28;20593;-76
2022/08/25 02:31:47;;;;;;;7.35;4.30;;;21.80;60.80;;;;;;4953799;28;20294;-76
2022/08/25 02:34:14;;;;;;;9.70;4.72;;;21.70;60.90;;;;;;4970633;28;20617;-76
2022/08/25 02:36:42;;;;;;;8.75;4.47;;;21.70;61.10;;;;;;4954404;28;20047;-76
2022/08/25 02:39:10;;;;;;;6.45;4.30;;;21.70;61.30;;;;;;4954142;28;20082;-76
2022/08/25 02:41:37;;;;;;;7.80;4.73;;;21.70;61.50;;;;;;4971699;28;20055;-76
2022/08/25 02:44:06;;;;;;;6.00;4.03;;;21.70;61.70;;;;;;4954337;28;20318;-76
2022/08/25 02:46:35;;;;;;;6.47;4.60;;;21.70;61.80;;;;;;4953926;28;20505;-76
2022/08/25 02:49:02;;;;;;;6.38;4.65;;;21.70;61.90;;;;;;4971478;28;20078;-76
2022/08/25 02:51:30;;;;;;;6.00;4.20;;;21.60;61.90;;;;;;4971643;28;20055;-76
2022/08/25 02:53:58;;;;;;;7.50;4.03;;;21.60;61.80;;;;;;4971554;28;20051;-76
2022/08/25 02:56:25;;;;;;;8.18;4.43;;;21.50;61.80;;;;;;4971217;28;20263;-76
2022/08/25 02:58:52;;;;;;;6.85;4.25;;;21.50;61.80;;;;;;4971653;28;20055;-76
2022/08/25 03:01:20;;;;;;;6.90;4.60;;;21.50;61.70;;;;;;4971750;28;20055;-76
2022/08/25 03:03:51;;;;;;;6.85;3.83;;;21.50;61.50;;;;;;4954152;28;20060;-76
2022/08/25 03:06:21;;;;;;;6.57;4.20;;;21.50;61.30;;;;;;4971325;28;20494;-76
2022/08/25 03:08:48;;;;;;;6.50;4.25;;;21.40;61.10;;;;;;4953835;28;20247;-76
2022/08/25 03:11:16;;;;;;;5.75;3.92;;;21.40;60.80;;;;;;4969947;28;20335;-76
2022/08/25 03:13:43;;;;;;;8.90;4.30;;;21.30;60.90;;;;;;4953843;28;20078;-76
2022/08/25 03:16:11;;;;;;;6.55;4.10;;;21.20;60.90;;;;;;4953875;28;20044;-76
2022/08/25 03:18:39;;;;;;;5.47;3.90;;;21.20;60.90;;;;;;4971346;28;20517;-76
2022/08/25 03:21:09;;;;;;;19.67;5.18;;;21.20;61.00;;;;;;4970991;28;20343;-76
2022/08/25 03:23:35;;;;;;;13.57;5.13;;;21.10;61.10;;;;;;4953693;28;20059;-76
2022/08/25 03:28:47;;;;;;;6.85;3.70;;;21.10;60.80;;;;;;4971108;28;20545;-76
2022/08/25 03:31:14;;;;;;;7.77;4.00;;;21.00;61.00;;;;;;4953254;28;20046;-76
2022/08/25 03:33:41;;;;;;;7.45;4.30;;;21.00;61.10;;;;;;4953854;28;20303;-76
2022/08/25 03:36:11;;;;;;;7.43;4.28;;;20.90;61.20;;;;;;4971267;28;20055;-76
2022/08/25 03:38:38;;;;;;;6.78;4.18;;;20.90;61.50;;;;;;4969832;28;20062;-76
2022/08/25 03:41:13;;;;;;;7.10;4.20;;;20.90;61.40;;;;;;4970835;28;20058;-76
2022/08/25 03:43:41;;;;;;;9.73;4.70;;;20.90;61.60;;;;;;4955353;28;20102;-76
2022/08/25 03:46:08;;;;;;;7.00;4.28;;;20.90;61.90;;;;;;4973349;28;20360;-76
2022/08/25 03:48:35;;;;;;;7.82;4.25;;;20.90;62.00;;;;;;4973463;28;20516;-76
2022/08/25 03:51:02;;;;;;;7.22;4.25;;;20.90;62.00;;;;;;4956566;28;20131;-76
2022/08/25 03:53:30;;;;;;;6.50;3.97;;;20.90;61.90;;;;;;4972714;28;20059;-76
2022/08/25 03:55:57;;;;;;;6.03;4.17;;;20.90;61.80;;;;;;4974190;28;20051;-76
2022/08/25 03:58:24;;;;;;;6.10;4.50;;;20.90;61.70;;;;;;4972732;28;20776;-76
2022/08/25 04:00:50;;;;;;;7.30;4.35;;;20.90;61.70;;;;;;4974001;28;20466;-76
2022/08/25 04:03:18;;;;;;;7.32;4.25;;;20.90;61.80;;;;;;4972982;28;20055;-76
2022/08/25 04:05:45;;;;;;;8.38;4.38;;;20.80;61.90;;;;;;4974039;28;20051;-76
2022/08/25 04:08:12;;;;;;;6.43;3.97;;;20.80;62.20;;;;;;4956267;28;20052;-76
2022/08/25 04:10:40;;;;;;;6.13;3.80;;;20.80;62.20;;;;;;4955987;28;20836;-76
2022/08/25 04:13:07;;;;;;;6.13;4.18;;;20.80;62.00;;;;;;4972040;28;20058;-76
2022/08/25 04:15:35;;;;;;;7.13;4.07;;;20.80;61.90;;;;;;4973010;28;20158;-76
2022/08/25 04:18:02;;;;;;;7.85;3.90;;;20.80;61.90;;;;;;4956361;28;20067;-76
2022/08/25 04:20:29;;;;;;;6.10;4.30;;;20.70;61.80;;;;;;4971987;28;20043;-76
2022/08/25 04:22:59;;;;;;;6.20;4.07;;;20.70;61.80;;;;;;4956476;28;20353;-76
2022/08/25 04:25:26;;;;;;;5.80;4.05;;;20.70;61.90;;;;;;4972464;28;20047;-76
2022/08/25 04:27:54;;;;;;;8.88;4.40;;;20.70;61.80;;;;;;4972267;28;20056;-76
2022/08/25 04:30:21;;;;;;;6.20;4.10;;;20.70;61.90;;;;;;4972215;28;20102;-76
2022/08/25 04:32:48;;;;;;;7.37;4.50;;;20.60;61.90;;;;;;4973321;28;20507;-76
2022/08/25 04:35:16;;;;;;;6.13;4.05;;;20.60;62.00;;;;;;4973554;28;20315;-76
2022/08/25 04:37:43;;;;;;;5.95;4.13;;;20.60;62.00;;;;;;4955854;28;20055;-77
2022/08/25 04:40:11;;;;;;;6.38;4.22;;;20.60;62.10;;;;;;4955511;28;20045;-76
2022/08/25 04:42:38;;;;;;;7.85;4.15;;;20.50;62.10;;;;;;4955979;28;20062;-76
2022/08/25 04:45:08;;;;;;;7.20;4.23;;;20.50;62.10;;;;;;4973376;28;20537;-76
2022/08/25 04:47:37;;;;;;;6.25;3.70;;;20.50;62.20;;;;;;4955849;28;20287;-76
2022/08/25 04:50:05;;;;;;;8.73;4.13;;;20.50;62.30;;;;;;4955967;28;20597;-76
2022/08/25 04:52:32;;;;;;;6.82;4.18;;;20.50;62.30;;;;;;4955650;28;20059;-76
2022/08/25 04:54:59;;;;;;;7.13;4.47;;;20.50;62.30;;;;;;4954902;28;20062;-76
2022/08/25 04:57:27;;;;;;;9.63;4.20;;;20.50;62.40;;;;;;4973056;28;20086;-76
2022/08/25 04:59:54;;;;;;;13.75;4.57;;;20.40;62.50;;;;;;4971671;28;20256;-76
2022/08/25 05:02:24;;;;;;;8.75;3.90;;;20.30;62.50;;;;;;4972978;28;20083;-76
2022/08/25 05:04:51;;;;;;;8.65;4.10;;;20.30;62.70;;;;;;4973369;28;20138;-76
2022/08/25 05:07:18;;;;;;;7.25;4.60;;;20.30;62.80;;;;;;4973145;28;20055;-76
2022/08/25 05:09:45;;;;;;;6.73;4.20;;;20.30;62.90;;;;;;4955310;28;20057;-76
2022/08/25 05:12:12;;;;;;;6.72;4.18;;;20.20;63.00;;;;;;4972850;28;20776;-76
2022/08/25 05:14:39;;;;;;;8.25;4.35;;;20.20;63.20;;;;;;4972867;28;20054;-76
2022/08/25 05:17:06;;;;;;;6.18;4.10;;;20.10;63.30;;;;;;4971395;28;20520;-76
2022/08/25 05:19:35;;;;;;;6.88;4.13;;;20.10;63.40;;;;;;4955080;28;20055;-77
2022/08/25 05:22:02;;;;;;;8.40;4.57;;;20.00;63.60;;;;;;4973398;28;20059;-76
2022/08/25 05:24:29;;;;;;;10.20;4.18;;;20.00;63.70;;;;;;4973092;28;20279;-76
2022/08/25 05:26:57;;;;;;;12.38;4.57;;;20.00;63.70;;;;;;4971677;28;20107;-76
2022/08/25 05:29:24;;;;;;;7.78;4.05;;;20.00;63.80;;;;;;4955450;28;20566;-76
2022/08/25 05:31:52;;;;;;;6.45;3.85;;;20.00;64.00;;;;;;4955241;28;20565;-77
2022/08/25 05:34:20;;;;;;;6.10;3.73;;;20.00;64.00;;;;;;4955153;28;20126;-76
2022/08/25 05:36:49;;;;;;;8.20;3.78;;;19.90;64.20;;;;;;4955568;28;20899;-77
2022/08/25 05:39:16;;;;;;;7.38;3.80;;;19.90;64.30;;;;;;4954915;28;20051;-76
2022/08/25 05:41:44;;;;;;;6.30;4.00;;;19.90;64.40;;;;;;4971404;28;20142;-77
2022/08/25 05:44:11;;;;;;;6.15;3.70;;;19.90;64.60;;;;;;4955526;28;20047;-77
2022/08/25 05:46:38;;;;;;;8.17;4.03;;;19.90;64.70;;;;;;4971860;28;20182;-77
2022/08/25 05:49:05;;;;;;;13.85;4.50;;;19.90;64.80;;;;;;4971114;28;20270;-77
2022/08/25 05:51:32;;;;;;;6.57;3.70;;;19.90;65.00;;;;;;4972832;28;20058;-77
2022/08/25 05:54:02;;;;;;;5.70;3.80;;;19.90;65.30;;;;;;4970990;28;20566;-77
2022/08/25 05:56:30;;;;;;;5.25;3.65;;;19.90;65.30;;;;;;4972238;28;20059;-77
2022/08/25 05:58:57;;;;;;;6.73;4.00;;;19.90;65.30;;;;;;4954846;28;20484;-77
2022/08/25 06:04:11;;;;;;;7.30;3.83;;;19.90;65.50;;;;;;4972370;28;20234;-77
2022/08/25 06:06:39;;;;;;;6.95;4.18;;;19.90;65.50;;;;;;4969996;28;20569;-77
2022/08/25 06:09:08;;;;;;;7.57;4.10;;;19.90;65.70;;;;;;4972047;28;20047;-77
2022/08/25 06:11:38;;;;;;;6.83;4.00;;;19.90;66.00;;;;;;4972401;28;20051;-77
2022/08/25 06:14:06;;;;;;;6.50;3.95;;;20.00;66.00;;;;;;4955283;28;20747;-77
2022/08/25 06:16:32;;;;;;;6.50;3.80;;;20.00;66.20;;;;;;4970811;28;20506;-77
2022/08/25 06:18:59;;;;;;;6.93;3.85;;;20.00;66.10;;;;;;4972376;28;20684;-77
2022/08/25 06:21:27;;;;;;;6.35;4.32;;;20.00;66.10;;;;;;4954733;28;20055;-77
2022/08/25 06:23:54;;;;;;;7.53;4.27;;;20.00;66.20;;;;;;4972211;28;20051;-77
2022/08/25 06:26:22;;;;;;;5.90;3.72;;;20.00;66.40;;;;;;4970458;28;20869;-77
2022/08/25 06:28:50;;;;;;;7.78;3.97;;;20.00;66.50;;;;;;4953864;28;20236;-77
2022/08/25 06:31:17;;;;;;;7.95;3.95;;;20.00;66.50;;;;;;4954496;28;20130;-77
2022/08/25 06:33:44;;;;;;;6.10;4.03;;;20.00;66.60;;;;;;4970549;28;20047;-76
2022/08/25 06:36:11;;;;;;;7.80;4.00;;;20.10;66.70;;;;;;4954447;28;20047;-77
2022/08/25 06:38:38;;;;;;;6.45;4.03;;;20.10;66.70;;;;;;4954416;28;20355;-77
2022/08/25 06:41:07;;;;;;;6.82;4.10;;;20.10;66.80;;;;;;4970004;28;20047;-77
2022/08/25 06:43:35;;;;;;;6.70;3.72;;;20.20;66.70;;;;;;4971726;28;20051;-77
2022/08/25 06:46:09;;;;;;;8.13;4.10;;;20.30;67.00;;;;;;4954499;28;20047;-77
2022/08/25 06:48:36;;;;;;;5.87;3.83;;;20.30;66.90;;;;;;4970339;28;20612;-77
2022/08/25 06:51:06;;;;;;;8.75;4.03;;;20.30;67.00;;;;;;4970254;28;20370;-77
2022/08/25 06:53:33;;;;;;;13.68;4.57;;;20.30;67.10;;;;;;4953971;28;20055;-77
2022/08/25 06:56:00;;;;;;;7.65;3.83;;;20.40;67.20;;;;;;4971707;28;20179;-77
2022/08/25 06:58:27;;;;;;;7.32;3.97;;;20.50;67.40;;;;;;4970275;28;20477;-77
2022/08/25 07:00:55;;;;;;;6.70;4.10;;;20.50;67.40;;;;;;4971811;28;20130;-77
2022/08/25 07:03:22;;;;;;;6.10;3.75;;;20.50;67.30;;;;;;4970442;28;20262;-77
2022/08/25 07:05:53;;;;;;;9.25;4.10;;;20.50;67.30;;;;;;4953989;28;20047;-77
2022/08/25 07:08:21;;;;;;;7.20;3.92;;;20.60;67.30;;;;;;4953837;28;20059;-77
2022/08/25 07:10:48;;;;;;;7.07;3.83;;;20.60;67.30;;;;;;4953552;28;20043;-77
2022/08/25 07:13:15;;;;;;;8.30;4.57;;;20.60;67.40;;;;;;4970177;28;20126;-77
2022/08/25 07:15:43;;;;;;;6.20;4.40;;;20.70;67.50;;;;;;4970167;28;20346;-77
2022/08/25 07:18:12;;;;;;;7.57;4.40;;;20.70;67.50;;;;;;4973534;28;20055;-77
2022/08/25 07:20:40;;;;;;;6.22;4.03;;;20.80;67.60;;;;;;4973469;28;20059;-77
2022/08/25 07:23:07;;;;;;;8.30;4.40;;;20.80;67.60;;;;;;4957196;28;20122;-77
2022/08/25 07:25:34;;;;;;;7.47;4.17;;;20.90;67.90;;;;;;4974789;28;20685;-77
2022/08/25 07:28:02;;;;;;;6.55;4.30;;;20.90;67.90;;;;;;4956941;28;20700;-77
2022/08/25 07:30:29;;;;;;;9.05;4.30;;;21.00;67.80;;;;;;4974406;28;20047;-77
2022/08/25 07:32:56;;;;;;;6.32;3.90;;;21.10;67.80;;;;;;4956982;28;20126;-77
2022/08/25 07:35:24;;;;;;;8.55;4.30;;;21.10;67.90;;;;;;4974854;28;20062;-77
2022/08/25 07:37:55;;;;;;;8.07;4.27;;;21.10;67.90;;;;;;4974534;28;20075;-77
2022/08/25 07:40:24;;;;;;;5.97;3.97;;;21.20;68.00;;;;;;4956585;28;20303;-77
2022/08/25 07:42:53;;;;;;;8.40;4.47;;;21.30;68.20;;;;;;4974560;28;20348;-77
2022/08/25 07:45:28;;;;;;;5.97;3.97;;;21.40;68.30;;;;;;4957061;28;20118;-77
2022/08/25 07:47:55;;;;;;;7.18;4.22;;;21.40;68.30;;;;;;4973361;28;20657;-77
2022/08/25 07:50:24;;;;;;;6.63;4.43;;;21.50;68.10;;;;;;4974371;28;20073;-77
2022/08/25 07:52:51;;;;;;;6.25;4.22;;;21.60;67.90;;;;;;4956759;28;20247;-77
2022/08/25 07:55:18;;;;;;;7.15;4.10;;;21.70;67.50;;;;;;4956471;28;20631;-77
2022/08/25 07:57:46;;;;;;;9.48;4.40;;;21.70;67.20;;;;;;4957231;28;20592;-77
2022/08/25 08:00:16;;;;;;;9.95;4.38;;;21.80;67.00;;;;;;4956359;28;20055;-77
2022/08/25 08:02:43;;;;;;;6.63;3.97;;;21.90;67.10;;;;;;4972838;28;20051;-77
2022/08/25 08:05:12;;;;;;;6.53;4.35;;;22.00;66.90;;;;;;4972960;28;20252;-77
2022/08/25 08:07:41;;;;;;;8.30;4.05;;;22.10;66.80;;;;;;4956426;28;20134;-77
2022/08/25 08:10:10;;;;;;;7.80;4.15;;;22.20;66.70;;;;;;4972686;28;20139;-77
2022/08/25 08:12:38;;;;;;;8.23;4.20;;;22.30;66.20;;;;;;4956721;28;20142;-77
2022/08/25 08:15:06;;;;;;;7.33;4.30;;;22.40;66.10;;;;;;4973927;28;20066;-77
2022/08/25 08:17:33;;;;;;;6.35;4.28;;;22.50;66.30;;;;;;4974237;28;20263;-77
2022/08/25 08:20:01;;;;;;;7.47;4.03;;;22.50;66.50;;;;;;4956447;28;20047;-77
2022/08/25 08:22:28;;;;;;;39.05;7.82;;;22.60;66.40;;;;;;4956339;28;20055;-77
2022/08/25 08:24:57;;;;;;;8.95;4.32;;;22.70;66.10;;;;;;4972187;28;20051;-77
2022/08/25 08:27:24;;;;;;;6.63;4.50;;;22.80;65.70;;;;;;4956379;28;20051;-77
2022/08/25 08:29:52;;;;;;;6.32;4.05;;;22.90;65.80;;;;;;4972863;28;20370;-77
2022/08/25 08:32:20;;;;;;;6.30;3.70;;;22.90;65.60;;;;;;4973586;28;20055;-77
2022/08/25 08:34:47;;;;;;;9.82;4.35;;;23.00;65.40;;;;;;4956396;28;20083;-77
2022/08/25 08:37:15;;;;;;;5.93;3.70;;;23.10;65.60;;;;;;4956433;28;20120;-77
2022/08/25 08:39:42;;;;;;;7.93;4.23;;;23.20;65.40;;;;;;4972067;28;20050;-76
2022/08/25 08:42:38;;;;;;;8.25;3.78;;;23.30;65.10;;;;;;4973729;28;20281;-76
2022/08/25 08:45:22;;;;;;;5.97;4.18;;;23.40;65.10;;;;;;4973286;28;20062;-77
2022/08/25 08:48:02;;;;;;;6.63;4.10;;;23.50;65.20;;;;;;4973844;28;20622;-77
2022/08/25 08:50:35;;;;;;;5.75;4.05;;;23.60;65.20;;;;;;4972112;28;20138;-77
2022/08/25 08:53:11;;;;;;;7.60;3.60;;;23.60;65.00;;;;;;4955987;28;20613;-76
2022/08/25 08:55:43;;;;;;;9.20;3.83;;;23.70;64.40;;;;;;4973059;28;20738;-77
2022/08/25 08:58:17;;;;;;;6.43;3.40;;;23.80;64.00;;;;;;4973264;28;20055;-77
2022/08/25 09:00:46;;;;;;;48.72;7.10;;;23.90;63.60;;;;;;4955554;28;20055;-77
2022/08/25 09:03:23;;;;;;;14.27;4.60;;;24.00;63.50;;;;;;4973458;28;20187;-77
2022/08/25 09:05:54;;;;;;;8.33;3.90;;;24.00;63.40;;;;;;4955600;28;20605;-77
2022/08/25 09:08:21;;;;;;;7.43;3.92;;;24.10;63.30;;;;;;4973107;28;20755;-77
2022/08/25 09:10:59;;;;;;;6.28;3.75;;;24.20;63.30;;;;;;4971432;28;20051;-77
2022/08/25 09:13:38;;;;;;;8.77;3.60;;;24.20;62.30;;;;;;4972113;28;20051;-77
2022/08/25 09:19:10;;;;;;;5.83;3.63;;;24.50;61.20;;;;;;4973039;28;20039;-77
2022/08/25 09:21:47;;;;;;;10.52;3.50;;;24.60;61.40;;;;;;4955650;28;20302;-77
2022/08/25 09:24:30;;;;;;;6.78;3.30;;;24.70;61.80;;;;;;4955689;28;20047;-77
2022/08/25 09:27:06;;;;;;;5.30;2.97;;;24.80;61.40;;;;;;4973341;28;20051;-77
2022/08/25 09:30:03;;;;;;;6.60;3.45;;;25.00;61.00;;;;;;4954945;28;20607;-77
2022/08/25 09:32:34;;;;;;;8.17;3.30;;;25.00;60.00;;;;;;4972614;28;20055;-77
2022/08/25 09:35:02;;;;;;;8.02;2.90;;;25.20;60.20;;;;;;4972873;28;20271;-77
2022/08/25 09:37:29;;;;;;;7.47;3.35;;;25.30;59.30;;;;;;4955166;28;20043;-77
2022/08/25 09:39:56;;;;;;;6.68;3.05;;;25.40;59.10;;;;;;4954455;28;20087;-77
2022/08/25 09:42:48;;;;;;;6.05;3.05;;;25.40;58.40;;;;;;4954322;28;20058;-77
2022/08/25 09:45:16;;;;;;;7.63;3.13;;;25.50;57.70;;;;;;4955342;28;20057;-77
2022/08/25 09:47:44;;;;;;;5.63;3.10;;;25.60;57.20;;;;;;4973125;28;20378;-77
2022/08/25 09:50:16;;;;;;;7.60;2.85;;;25.70;56.40;;;;;;4954819;28;20419;-77
2022/08/25 09:52:44;;;;;;;6.40;2.65;;;25.80;56.10;;;;;;4971216;28;20597;-77
2022/08/25 09:55:29;;;;;;;6.40;2.72;;;26.00;55.70;;;;;;4972086;28;20078;-77
2022/08/25 09:57:57;;;;;;;5.70;2.90;;;26.00;56.50;;;;;;4972743;28;20146;-77
2022/08/25 10:00:29;;;;;;;8.90;3.15;;;26.10;55.70;;;;;;4972437;28;20255;-77
2022/08/25 10:03:07;;;;;;;7.68;3.15;;;26.30;54.30;;;;;;4954845;28;20051;-77
2022/08/25 10:05:37;;;;;;;7.30;2.97;;;26.40;53.70;;;;;;4972861;28;20047;-77
2022/08/25 10:08:12;;;;;;;8.30;2.75;;;26.50;53.40;;;;;;4954647;28;20059;-77
2022/08/25 10:10:45;;;;;;;7.67;3.13;;;26.60;52.50;;;;;;4954953;28;20235;-77
2022/08/25 10:13:18;;;;;;;4.78;3.03;;;26.70;52.80;;;;;;4972833;28;20298;-77
2022/08/25 10:15:48;;;;;;;5.45;2.80;;;26.80;52.80;;;;;;4971084;28;20532;-77
2022/08/25 10:18:24;;;;;;;4.88;2.72;;;26.90;53.00;;;;;;4971971;28;20055;-77
2022/08/25 10:21:12;;;;;;;6.22;2.90;;;27.00;52.00;;;;;;4954316;28;20055;-77
2022/08/25 10:23:45;;;;;;;7.43;3.40;;;27.10;51.80;;;;;;4972102;28;20195;-77
2022/08/25 10:26:26;;;;;;;10.75;3.63;;;27.20;52.00;;;;;;4972206;28;20809;-77
2022/08/25 10:29:06;;;;;;;8.30;3.70;;;27.20;51.70;;;;;;4954360;28;20051;-77
2022/08/25 10:31:40;;;;;;;5.85;2.85;;;27.30;51.70;;;;;;4954620;28;20047;-77
2022/08/25 10:34:21;;;;;;;16.63;3.88;;;27.40;50.70;;;;;;4972160;28;20063;-77
2022/08/25 10:36:57;;;;;;;7.40;2.90;;;27.50;51.10;;;;;;4954578;28;20425;-77
2022/08/25 10:39:37;;;;;;;6.63;3.08;;;27.60;51.10;;;;;;4971761;28;20278;-77
2022/08/25 10:42:16;;;;;;;6.85;3.40;;;27.70;50.50;;;;;;4972104;28;20158;-77
2022/08/25 10:48:04;;;;;;;8.43;3.03;;;27.80;50.60;;;;;;4954373;28;20047;-77
2022/08/25 10:50:38;;;;;;;7.10;3.60;;;27.90;50.50;;;;;;4953970;28;20137;-77
2022/08/25 10:53:15;;;;;;;9.35;3.00;;;28.00;49.70;;;;;;4971329;28;20869;-77
2022/08/25 10:55:52;;;;;;;6.78;3.30;;;28.10;49.80;;;;;;4953997;28;20122;-77
2022/08/25 10:58:28;;;;;;;22.65;4.32;;;28.10;48.90;;;;;;4954171;28;20130;-77
2022/08/25 11:01:04;;;;;;;6.25;3.15;;;28.30;49.30;;;;;;4971826;28;20518;-77
2022/08/25 11:03:44;;;;;;;15.70;4.37;;;28.30;48.50;;;;;;4953891;28;20126;-77
2022/08/25 11:06:19;;;;;;;5.43;3.40;;;28.30;48.70;;;;;;4954403;28;20358;-77
2022/08/25 11:08:49;;;;;;;8.02;3.35;;;28.40;49.50;;;;;;4971534;28;20597;-77
2022/08/25 11:11:24;;;;;;;8.27;3.30;;;28.50;49.10;;;;;;4954022;28;20588;-77
2022/08/25 11:13:57;;;;;;;6.85;3.10;;;28.50;49.10;;;;;;4953785;28;20518;-77
2022/08/25 11:16:33;;;;;;;6.23;3.00;;;28.60;48.60;;;;;;4971443;28;20082;-78
2022/08/25 11:19:10;;;;;;;7.82;3.15;;;28.70;49.60;;;;;;4971191;28;20737;-77
2022/08/25 11:21:44;;;;;;;6.05;3.20;;;28.80;47.90;;;;;;4971695;28;20051;-77
2022/08/25 11:24:33;;;;;;;5.68;2.90;;;28.90;48.20;;;;;;4971404;28;20055;-77
2022/08/25 11:27:03;;;;;;;4.65;3.13;;;28.90;47.80;;;;;;4953642;28;21079;-77
2022/08/25 11:29:35;;;;;;;5.50;3.40;;;29.00;47.40;;;;;;4953533;28;20544;-77
2022/08/25 11:32:03;;;;;;;10.18;3.53;;;29.10;47.60;;;;;;4970090;28;20260;-78
2022/08/25 11:34:33;;;;;;;5.72;3.10;;;29.10;47.70;;;;;;4969944;28;20058;-77
2022/08/25 11:37:07;;;;;;;5.45;3.08;;;29.20;46.20;;;;;;4969984;28;20056;-77
2022/08/25 11:39:56;;;;;;;4.15;2.88;;;29.30;46.70;;;;;;4953474;28;20058;-77
2022/08/25 11:42:35;;;;;;;4.60;3.30;;;29.30;46.40;;;;;;4969645;28;20057;-77
2022/08/25 11:45:12;;;;;;;7.43;2.75;;;29.40;47.00;;;;;;4953768;28;20268;-77
2022/08/25 11:48:04;;;;;;;6.43;3.42;;;29.50;45.90;;;;;;4970025;28;20067;-78
2022/08/25 11:50:34;;;;;;;10.85;3.75;;;29.50;45.80;;;;;;4953138;28;20058;-77
2022/08/25 11:53:19;;;;;;;8.07;3.10;;;29.60;45.70;;;;;;4953634;28;20059;-77
2022/08/25 11:55:49;;;;;;;5.47;3.07;;;29.70;45.00;;;;;;4970397;28;20601;-77
2022/08/25 11:58:32;;;;;;;9.88;3.70;;;29.70;45.00;;;;;;4953688;28;20356;-77
2022/08/25 12:01:00;;;;;;;45.55;5.53;;;29.80;43.80;;;;;;4953204;28;20518;-78
2022/08/25 12:03:52;;;;;;;7.53;2.70;;;29.90;43.50;;;;;;4953726;28;20058;-77
2022/08/25 12:06:25;;;;;;;4.63;2.60;;;29.90;42.50;;;;;;4958781;28;20052;-78
2022/08/25 12:09:14;;;;;;;5.43;3.10;;;30.00;41.90;;;;;;4956486;28;20059;-77
2022/08/25 12:11:56;;;;;;;28.63;5.07;;;30.00;41.60;;;;;;4956830;28;20252;-77
2022/08/25 12:14:46;;;;;;;21.58;4.65;;;30.10;42.40;;;;;;4956423;28;20458;-77
2022/08/25 12:17:23;;;;;;;16.30;3.60;;;30.20;41.60;;;;;;4952571;28;20489;-77
2022/08/25 12:19:56;;;;;;;6.85;2.90;;;30.30;42.00;;;;;;4973983;28;20043;-77
2022/08/25 12:22:53;;;;;;;6.30;3.00;;;30.40;42.20;;;;;;4956448;28;20078;-77
2022/08/25 12:25:47;;;;;;;401.73;39.85;;;30.50;42.30;;;;;;4973996;28;20272;-77
2022/08/25 12:28:46;;;;;;;34.63;5.40;;;30.50;42.10;;;;;;4972399;28;20054;-77
2022/08/25 12:31:28;;;;;;;6.03;3.00;;;30.60;41.30;;;;;;4969028;28;20051;-77
2022/08/25 12:34:08;;;;;;;4.45;2.80;;;30.70;40.80;;;;;;4956200;28;20193;-78
2022/08/25 12:36:35;;;;;;;4.13;2.60;;;30.70;41.10;;;;;;4972795;28;20055;-77
2022/08/25 12:39:17;;;;;;;79.07;9.40;;;30.80;40.80;;;;;;4973540;28;20375;-77
2022/08/25 12:41:55;;;;;;;16.20;4.20;;;30.80;41.00;;;;;;4972367;28;20055;-78
2022/08/25 12:44:42;;;;;;;15.90;3.60;;;30.90;41.60;;;;;;4973883;28;20059;-77
2022/08/25 12:47:30;;;;;;;5.47;2.58;;;31.00;41.70;;;;;;4972208;28;20495;-78
2022/08/25 12:50:31;;;;;;;5.00;3.07;;;31.10;41.30;;;;;;4955779;28;20514;-77
2022/08/25 12:53:11;;;;;;;6.57;3.20;;;31.20;41.20;;;;;;4956077;28;20282;-77
2022/08/25 12:55:44;;;;;;;4.88;2.50;;;31.20;40.50;;;;;;4955651;28;20062;-77
2022/08/25 12:58:11;;;;;;;6.72;2.70;;;31.30;39.50;;;;;;4956130;28;20438;-78
2022/08/25 13:00:56;;;;;;;5.00;3.08;;;31.30;39.40;;;;;;4972106;28;20213;-77
2022/08/25 13:03:58;;;;;;;4.53;2.67;;;31.40;39.70;;;;;;4955818;28;20051;-77
2022/08/25 13:06:38;;;;;;;5.55;3.10;;;31.50;41.10;;;;;;4973481;28;20261;-77
2022/08/25 13:09:45;;;;;;;5.43;3.20;;;31.50;40.80;;;;;;4973108;28;20057;-77
2022/08/25 13:12:17;;;;;;;5.60;2.90;;;31.60;41.10;;;;;;4973381;28;20052;-78
2022/08/25 13:14:51;;;;;;;5.65;3.15;;;31.70;40.90;;;;;;4971337;28;20047;-77
2022/08/25 13:17:25;;;;;;;5.83;3.23;;;31.80;40.80;;;;;;4973555;28;20090;-77